Time;durP1;ratioP1;P1;durP2;ratioP2;P2;SDS_P1;SDS_P2;PMS_P1;PMS_P2;Temp;Humidity;BMP_temperature;BMP_pressure;BME280_temperature;BME280_humidity;BME280_pressure;Samples;Min_cycle;Max_cycle;Signal;HPM_P1;HPM_P2
2022/06/22 00:00:03;;;;;;;;;;;;;;;26.36;65.84;98850.94;2068714;28;20224;-50
2022/06/22 00:01:16;;;;;;;;;;;;;;;26.37;65.78;98854.47;2066014;28;19917;-48
2022/06/22 00:02:19;;;;;;;;;;;;;;;26.36;65.62;98841.84;2066239;28;19991;-47
2022/06/22 00:03:20;;;;;;;;;;;;;;;26.35;65.39;98843.88;2069192;28;19917;-47
2022/06/22 00:04:23;;;;;;;;;;;;;;;26.36;65.65;98841.84;2066433;28;19913;-48
2022/06/22 00:05:27;;;;;;;;;;;;;;;26.36;65.50;98836.28;2068268;28;20351;-47
2022/06/22 00:06:41;;;;;;;;;;;;;;;26.35;65.64;98834.78;2069844;28;19952;-48
2022/06/22 00:07:45;;;;;;;;;;;;;;;26.34;65.52;98828.47;2068491;28;19921;-47
2022/06/22 00:08:51;;;;;;;;;;;;;;;26.33;65.43;98832.47;2069573;28;19944;-47
2022/06/22 00:09:53;;;;;;;;;;;;;;;26.34;65.51;98824.91;2069323;28;20212;-48
2022/06/22 00:10:55;;;;;;;;;;;;;;;26.34;65.58;98825.69;2066517;28;20320;-47
2022/06/22 00:11:56;;;;;;;;;;;;;;;26.34;65.72;98827.69;2068046;28;20171;-47
2022/06/22 00:12:58;;;;;;;;;;;;;;;26.33;65.54;98815.81;2065881;28;20141;-48
2022/06/22 00:14:01;;;;;;;;;;;;;;;26.34;65.45;98827.69;2064442;28;20040;-47
2022/06/22 00:15:17;;;;;;;;;;;;;;;26.33;65.48;98824.16;2069342;28;19917;-48
2022/06/22 00:16:19;;;;;;;;;;;;;;;26.33;65.32;98826.94;2068951;28;19916;-48
2022/06/22 00:17:39;;;;;;;;;;;;;;;26.33;65.64;98831.75;2063355;28;20255;-47
2022/06/22 00:18:42;;;;;;;;;;;;;;;26.33;65.28;98831.75;2063400;28;20411;-49
2022/06/22 00:19:43;;;;;;;;;;;;;;;26.32;65.52;98819.88;2067357;28;20921;-48
2022/06/22 00:20:49;;;;;;;;;;;;;;;26.33;65.35;98820.66;2068367;28;19992;-48
2022/06/22 00:21:49;;;;;;;;;;;;;;;26.33;65.28;98823.41;2066315;28;20367;-48
2022/06/22 00:22:55;;;;;;;;;;;;;;;26.33;65.14;98815.81;2067004;28;19996;-47
2022/06/22 00:23:57;;;;;;;;;;;;;;;26.31;65.32;98795.38;2067767;28;20028;-48
2022/06/22 00:25:10;;;;;;;;;;;;;;;26.30;65.12;98799.41;2069367;28;19917;-46
2022/06/22 00:26:22;;;;;;;;;;;;;;;26.30;65.17;98782.75;2060348;28;19923;-48
2022/06/22 00:27:30;;;;;;;;;;;;;;;26.31;65.38;98784.28;2065430;28;19917;-46
2022/06/22 00:28:33;;;;;;;;;;;;;;;26.30;65.37;98782.75;2067625;28;20286;-48
2022/06/22 00:29:34;;;;;;;;;;;;;;;26.30;65.45;98791.09;2062007;28;19917;-47
2022/06/22 00:30:44;;;;;;;;;;;;;;;26.29;65.42;98782.00;2068493;28;20612;-47
2022/06/22 00:31:57;;;;;;;;;;;;;;;26.29;65.13;98784.00;2068766;28;19956;-49
2022/06/22 00:32:59;;;;;;;;;;;;;;;26.27;65.03;98778.97;2066575;28;20544;-47
2022/06/22 00:34:08;;;;;;;;;;;;;;;26.28;65.05;98786.00;2066730;28;19921;-47
2022/06/22 00:35:32;;;;;;;;;;;;;;;26.27;65.24;98783.75;2066272;28;19921;-47
2022/06/22 00:36:37;;;;;;;;;;;;;;;26.26;65.13;98780.22;2054284;28;20029;-47
2022/06/22 00:37:38;;;;;;;;;;;;;;;26.27;64.74;98776.19;2053606;28;20363;-47
2022/06/22 00:38:38;;;;;;;;;;;;;;;26.26;64.72;98773.91;2065513;28;19928;-47
2022/06/22 00:39:50;;;;;;;;;;;;;;;26.25;64.74;98770.38;2066300;28;20759;-50
2022/06/22 00:40:55;;;;;;;;;;;;;;;26.25;65.14;98770.38;2067183;28;20248;-48
2022/06/22 00:41:55;;;;;;;;;;;;;;;26.26;65.00;98754.47;2069138;28;20302;-46
2022/06/22 00:42:55;;;;;;;;;;;;;;;26.26;65.16;98758.00;2067471;28;19925;-46
2022/06/22 00:43:56;;;;;;;;;;;;;;;26.26;65.05;98748.91;2067351;28;19917;-47
2022/06/22 00:44:56;;;;;;;;;;;;;;;26.26;64.85;98751.69;2069322;28;19917;-47
2022/06/22 00:45:57;;;;;;;;;;;;;;;26.25;65.03;98747.41;2068624;28;20181;-47
2022/06/22 00:47:21;;;;;;;;;;;;;;;26.23;64.99;98755.44;2069915;28;20324;-46
2022/06/22 00:48:26;;;;;;;;;;;;;;;26.24;64.79;98751.41;2064904;28;20465;-48
2022/06/22 00:49:28;;;;;;;;;;;;;;;26.23;64.81;98753.44;2068028;28;19924;-46
2022/06/22 00:50:39;;;;;;;;;;;;;;;26.24;65.04;98754.19;2070357;28;19917;-46
2022/06/22 00:51:40;;;;;;;;;;;;;;;26.20;64.86;98748.84;2068410;28;19917;-47
2022/06/22 00:52:43;;;;;;;;;;;;;;;26.19;64.64;98752.88;2068989;28;20310;-48
2022/06/22 00:53:59;;;;;;;;;;;;;;;26.19;64.60;98766.00;2063512;28;19956;-47
2022/06/22 00:55:00;;;;;;;;;;;;;;;26.17;64.62;98752.63;2068020;28;19913;-46
2022/06/22 00:56:16;;;;;;;;;;;;;;;26.17;64.55;98751.84;2068767;28;19913;-50
2022/06/22 00:57:25;;;;;;;;;;;;;;;26.19;64.15;98752.88;2071009;28;20653;-47
2022/06/22 00:58:29;;;;;;;;;;;;;;;26.17;64.53;98751.84;2070102;28;20371;-50
2022/06/22 00:59:46;;;;;;;;;;;;;;;26.18;64.58;98764.47;2068836;28;19920;-47
2022/06/22 01:00:53;;;;;;;;;;;;;;;26.15;64.86;98762.69;2062127;28;19917;-47
2022/06/22 01:01:59;;;;;;;;;;;;;;;26.13;64.50;98767.94;2068596;28;19909;-46
2022/06/22 01:03:05;;;;;;;;;;;;;;;26.11;64.04;98760.13;2069948;28;19917;-47
2022/06/22 01:04:06;;;;;;;;;;;;;;;26.10;63.93;98761.38;2069429;28;20246;-49
2022/06/22 01:05:06;;;;;;;;;;;;;;;26.11;63.85;98753.81;2070755;28;19921;-47
2022/06/22 01:06:15;;;;;;;;;;;;;;;26.12;63.49;98761.63;2069164;28;19956;-47
2022/06/22 01:07:18;;;;;;;;;;;;;;;26.11;63.26;98748.28;2067947;28;19940;-46
2022/06/22 01:08:28;;;;;;;;;;;;;;;26.11;63.73;98737.94;2070082;28;20024;-47
2022/06/22 01:09:28;;;;;;;;;;;;;;;26.11;63.66;98734.41;2068164;28;20019;-47
2022/06/22 01:10:28;;;;;;;;;;;;;;;26.11;63.70;98729.63;2068003;28;19917;-47
2022/06/22 01:13:20;;;;;;;;;;;;;;;26.11;63.75;98715.75;2068267;28;19976;-47
2022/06/22 01:14:25;;;;;;;;;;;;;;;26.11;63.97;98715.75;2066673;28;20149;-49
2022/06/22 01:15:30;;;;;;;;;;;;;;;26.13;63.55;98712.47;2072348;28;20351;-47
2022/06/22 01:16:34;;;;;;;;;;;;;;;26.13;64.25;98709.69;2068665;28;19910;-47
2022/06/22 01:17:44;;;;;;;;;;;;;;;26.12;64.12;98708.19;2070675;28;20504;-47
2022/06/22 01:18:48;;;;;;;;;;;;;;;26.12;63.76;98699.88;2068016;28;19952;-47
2022/06/22 01:19:48;;;;;;;;;;;;;;;26.11;63.76;98704.66;2068333;28;19978;-48
2022/06/22 01:21:04;;;;;;;;;;;;;;;26.12;64.18;98702.63;2070604;28;19913;-47
2022/06/22 01:22:23;;;;;;;;;;;;;;;26.12;64.07;98710.97;2069129;28;19970;-46
2022/06/22 01:23:26;;;;;;;;;;;;;;;26.12;63.99;98710.97;2067558;28;19935;-47
2022/06/22 01:24:30;;;;;;;;;;;;;;;26.12;64.04;98722.06;2068445;28;20322;-46
2022/06/22 01:25:36;;;;;;;;;;;;;;;26.12;63.95;98728.34;2070561;28;19917;-46
2022/06/22 01:27:09;;;;;;;;;;;;;;;26.12;64.14;98733.16;2069416;28;19967;-46
2022/06/22 01:28:10;;;;;;;;;;;;;;;26.11;64.16;98726.09;2067379;28;20251;-48
2022/06/22 01:29:15;;;;;;;;;;;;;;;26.11;64.11;98737.19;2070213;28;19925;-48
2022/06/22 01:30:18;;;;;;;;;;;;;;;26.12;64.09;98733.16;2068904;28;19916;-46
2022/06/22 01:31:19;;;;;;;;;;;;;;;26.12;63.96;98733.16;2068274;28;19917;-47
2022/06/22 01:32:27;;;;;;;;;;;;;;;26.11;64.24;98740.72;2069689;28;20228;-46
2022/06/22 01:33:32;;;;;;;;;;;;;;;26.12;63.85;98747.03;2064165;28;19921;-48
2022/06/22 01:34:39;;;;;;;;;;;;;;;26.12;63.88;98755.34;2060994;28;20064;-47
2022/06/22 01:35:40;;;;;;;;;;;;;;;26.12;64.09;98760.91;2060970;28;19909;-47
2022/06/22 01:36:40;;;;;;;;;;;;;;;26.13;64.30;98759.63;2063906;28;19963;-45
2022/06/22 01:37:44;;;;;;;;;;;;;;;26.11;64.03;98765.69;2066532;28;19917;-48
2022/06/22 01:38:45;;;;;;;;;;;;;;;26.09;63.25;98770.97;2067617;28;19905;-47
2022/06/22 01:39:45;;;;;;;;;;;;;;;26.08;63.00;98766.66;2068573;28;19995;-47
2022/06/22 01:40:48;;;;;;;;;;;;;;;26.07;62.61;98771.44;2070424;28;19924;-48
2022/06/22 01:42:05;;;;;;;;;;;;;;;26.09;62.44;98762.63;2060635;28;19917;-47
2022/06/22 01:43:15;;;;;;;;;;;;;;;26.06;62.96;98772.72;2066970;28;20370;-46
2022/06/22 01:44:28;;;;;;;;;;;;;;;26.08;62.65;98772.97;2067770;28;19921;-47
2022/06/22 01:45:32;;;;;;;;;;;;;;;26.08;62.37;98778.53;2066845;28;20321;-46
2022/06/22 01:46:51;;;;;;;;;;;;;;;26.08;63.03;98778.53;2068030;28;19917;-46
2022/06/22 01:47:59;;;;;;;;;;;;;;;26.07;63.26;98762.34;2068832;28;19920;-47
2022/06/22 01:49:06;;;;;;;;;;;;;;;26.07;63.77;98771.44;2068593;28;19967;-46
2022/06/22 01:50:25;;;;;;;;;;;;;;;26.08;63.33;98772.97;2069894;28;19924;-49
2022/06/22 01:51:34;;;;;;;;;;;;;;;26.06;63.38;98756.06;2070850;28;20144;-47
2022/06/22 01:52:53;;;;;;;;;;;;;;;26.05;63.02;98751.78;2067298;28;20343;-48
2022/06/22 01:53:58;;;;;;;;;;;;;;;26.06;63.37;98752.53;2063335;28;19917;-46
2022/06/22 01:55:03;;;;;;;;;;;;;;;26.05;63.56;98754.56;2071093;28;19917;-48
2022/06/22 01:56:10;;;;;;;;;;;;;;;26.05;63.47;98754.56;2067973;28;20009;-48
2022/06/22 01:57:17;;;;;;;;;;;;;;;26.05;63.47;98751.78;2068750;28;20024;-47
2022/06/22 01:58:17;;;;;;;;;;;;;;;26.04;64.02;98755.78;2069161;28;19916;-47
2022/06/22 01:59:31;;;;;;;;;;;;;;;26.03;63.60;98757.03;2067854;28;20430;-46
2022/06/22 02:00:31;;;;;;;;;;;;;;;26.02;63.99;98755.50;2067643;28;20248;-47
2022/06/22 02:01:51;;;;;;;;;;;;;;;26.03;63.84;98756.28;2069327;28;20304;-47
2022/06/22 02:02:56;;;;;;;;;;;;;;;26.02;63.87;98763.84;2069154;28;20198;-48
2022/06/22 02:04:03;;;;;;;;;;;;;;;26.02;63.91;98755.50;2067509;28;19917;-47
2022/06/22 02:05:03;;;;;;;;;;;;;;;26.03;63.81;98759.06;2069493;28;19941;-47
2022/06/22 02:07:44;;;;;;;;;;;;;;;26.02;63.89;98766.63;2067858;28;19924;-47
2022/06/22 02:07:48;;;;;;;;;;;;;;;26.04;64.09;98760.59;2065511;28;20245;-46
2022/06/22 02:08:49;;;;;;;;;;;;;;;26.03;63.93;98767.38;2067154;28;19924;-47
2022/06/22 02:10:10;;;;;;;;;;;;;;;26.03;64.27;98765.38;2069494;28;20267;-46
2022/06/22 02:11:13;;;;;;;;;;;;;;;26.02;64.02;98763.84;2062308;28;19928;-47
2022/06/22 02:12:20;;;;;;;;;;;;;;;26.03;63.88;98764.59;2067220;28;19929;-46
2022/06/22 02:13:31;;;;;;;;;;;;;;;26.02;63.93;98751.97;2067631;28;20008;-47
2022/06/22 02:14:32;;;;;;;;;;;;;;;26.01;63.95;98750.47;2069864;28;20008;-46
2022/06/22 02:15:38;;;;;;;;;;;;;;;26.01;63.99;98744.94;2068028;28;20179;-47
2022/06/22 02:16:57;;;;;;;;;;;;;;;26.00;63.72;98748.94;2067570;28;19917;-49
2022/06/22 02:17:57;;;;;;;;;;;;;;;25.99;64.13;98742.63;2062419;28;19917;-46
2022/06/22 02:18:57;;;;;;;;;;;;;;;26.00;63.97;98744.16;2068849;28;20314;-47
2022/06/22 02:20:17;;;;;;;;;;;;;;;26.00;64.37;98748.94;2067925;28;20111;-46
2022/06/22 02:21:20;;;;;;;;;;;;;;;25.99;64.23;98748.19;2066554;28;20290;-47
2022/06/22 02:22:20;;;;;;;;;;;;;;;26.00;64.42;98748.94;2063494;28;19924;-46
2022/06/22 02:23:20;;;;;;;;;;;;;;;26.00;64.17;98748.94;2069130;28;19923;-47
2022/06/22 02:24:26;;;;;;;;;;;;;;;25.99;64.00;98750.97;2065814;28;19909;-47
2022/06/22 02:25:27;;;;;;;;;;;;;;;25.99;63.94;98748.19;2060572;28;19913;-48
2022/06/22 02:26:46;;;;;;;;;;;;;;;25.99;63.85;98750.97;2068421;28;19917;-47
2022/06/22 02:27:46;;;;;;;;;;;;;;;25.98;64.13;98749.44;2065576;28;20348;-46
2022/06/22 02:28:48;;;;;;;;;;;;;;;25.99;64.28;98761.28;2068673;28;19921;-50
2022/06/22 02:29:50;;;;;;;;;;;;;;;25.99;64.34;98764.84;2068467;28;19921;-47
2022/06/22 02:30:51;;;;;;;;;;;;;;;25.99;64.07;98775.16;2062878;28;19916;-47
2022/06/22 02:31:53;;;;;;;;;;;;;;;25.97;64.16;98772.88;2065532;28;20214;-47
2022/06/22 02:32:53;;;;;;;;;;;;;;;25.98;64.05;98766.09;2067484;28;19929;-46
2022/06/22 02:33:55;;;;;;;;;;;;;;;25.98;63.94;98771.63;2064436;28;19925;-49
2022/06/22 02:34:56;;;;;;;;;;;;;;;25.97;64.19;98764.56;2065672;28;19921;-49
2022/06/22 02:35:57;;;;;;;;;;;;;;;25.96;64.25;98765.06;2065903;28;19964;-47
2022/06/22 02:37:00;;;;;;;;;;;;;;;25.95;64.06;98767.06;2065185;28;20228;-48
2022/06/22 02:38:03;;;;;;;;;;;;;;;25.97;63.92;98763.78;2066979;28;20330;-47
2022/06/22 02:39:04;;;;;;;;;;;;;;;25.97;63.81;98761.00;2067194;28;20088;-49
2022/06/22 02:40:09;;;;;;;;;;;;;;;25.96;63.76;98760.25;2068240;28;20305;-48
2022/06/22 02:45:07;;;;;;;;;;;;;;;25.94;63.82;98740.59;2062121;28;19913;-47
2022/06/22 02:46:11;;;;;;;;;;;;;;;25.93;63.80;98730.72;2062703;28;20441;-45
2022/06/22 02:47:23;;;;;;;;;;;;;;;25.92;64.15;98731.22;2067915;28;19974;-47
2022/06/22 02:48:26;;;;;;;;;;;;;;;25.93;64.32;98735.53;2066871;28;19917;-47
2022/06/22 02:49:32;;;;;;;;;;;;;;;25.93;64.10;98738.28;2062851;28;20394;-47
2022/06/22 02:50:38;;;;;;;;;;;;;;;25.92;64.35;98731.97;2066129;28;20393;-46
2022/06/22 02:51:43;;;;;;;;;;;;;;;25.91;64.00;98730.47;2067833;28;19940;-46
2022/06/22 02:52:46;;;;;;;;;;;;;;;25.91;63.73;98730.47;2068010;28;19917;-47
2022/06/22 02:53:47;;;;;;;;;;;;;;;25.92;64.21;98728.44;2066326;28;19921;-48
2022/06/22 02:54:51;;;;;;;;;;;;;;;25.92;64.18;98731.97;2070849;28;20602;-50
2022/06/22 02:55:52;;;;;;;;;;;;;;;25.91;63.82;98727.69;2067548;28;19913;-47
2022/06/22 02:56:57;;;;;;;;;;;;;;;25.91;63.87;98732.50;2067051;28;19909;-46
2022/06/22 02:57:59;;;;;;;;;;;;;;;25.91;64.18;98736.00;2068252;28;20298;-47
2022/06/22 02:58:59;;;;;;;;;;;;;;;25.89;64.08;98730.22;2068028;28;19914;-48
2022/06/22 03:00:00;;;;;;;;;;;;;;;25.91;64.03;98738.78;2069663;28;20258;-46
2022/06/22 03:01:01;;;;;;;;;;;;;;;25.91;64.29;98730.47;2069432;28;19905;-46
2022/06/22 03:02:03;;;;;;;;;;;;;;;25.90;64.17;98745.59;2066915;28;19949;-48
2022/06/22 03:03:22;;;;;;;;;;;;;;;25.89;64.17;98749.63;2068748;28;19960;-49
2022/06/22 03:04:24;;;;;;;;;;;;;;;25.88;64.41;98759.19;2066881;28;20008;-47
2022/06/22 03:05:25;;;;;;;;;;;;;;;25.91;64.47;98757.47;2065115;28;19909;-48
2022/06/22 03:06:28;;;;;;;;;;;;;;;25.90;64.05;98759.47;2067475;28;20441;-47
2022/06/22 03:07:29;;;;;;;;;;;;;;;25.90;64.06;98755.94;2064691;28;20382;-47
2022/06/22 03:08:29;;;;;;;;;;;;;;;25.89;64.01;98743.31;2066107;28;19916;-47
2022/06/22 03:09:30;;;;;;;;;;;;;;;25.87;63.88;98746.56;2067779;28;19952;-47
2022/06/22 03:10:42;;;;;;;;;;;;;;;25.88;63.93;98745.31;2068923;28;19913;-47
2022/06/22 03:11:45;;;;;;;;;;;;;;;25.88;64.04;98741.78;2067310;28;20255;-49
2022/06/22 03:12:46;;;;;;;;;;;;;;;25.87;64.09;98743.78;2061853;28;19983;-49
2022/06/22 03:13:53;;;;;;;;;;;;;;;25.88;64.42;98744.56;2064361;28;19921;-46
2022/06/22 03:15:03;;;;;;;;;;;;;;;25.87;64.34;98741.03;2067715;28;20339;-48
2022/06/22 03:16:04;;;;;;;;;;;;;;;25.86;64.31;98745.03;2061820;28;19917;-45
2022/06/22 03:17:07;;;;;;;;;;;;;;;25.86;64.10;98745.03;2068393;28;19971;-46
2022/06/22 03:18:13;;;;;;;;;;;;;;;25.86;64.24;98745.03;2068079;28;19917;-46
2022/06/22 03:19:17;;;;;;;;;;;;;;;25.86;64.27;98739.50;2062605;28;20005;-48
2022/06/22 03:20:20;;;;;;;;;;;;;;;25.86;64.06;98735.97;2067852;28;19909;-47
2022/06/22 03:21:20;;;;;;;;;;;;;;;25.85;64.10;98737.22;2068521;28;20003;-47
2022/06/22 03:22:26;;;;;;;;;;;;;;;25.85;63.92;98743.53;2063343;28;19960;-46
2022/06/22 03:23:29;;;;;;;;;;;;;;;25.84;64.08;98742.00;2066959;28;19906;-47
2022/06/22 03:24:33;;;;;;;;;;;;;;;25.85;64.33;98748.31;2067700;28;19917;-47
2022/06/22 03:25:38;;;;;;;;;;;;;;;25.84;64.49;98758.66;2069826;28;19950;-47
2022/06/22 03:26:48;;;;;;;;;;;;;;;25.83;64.46;98757.13;2067624;28;19978;-47
2022/06/22 03:27:53;;;;;;;;;;;;;;;25.82;64.44;98752.81;2062941;28;20624;-49
2022/06/22 03:29:00;;;;;;;;;;;;;;;25.84;64.25;98755.88;2062653;28;19952;-46
2022/06/22 03:30:05;;;;;;;;;;;;;;;25.84;64.45;98757.88;2064824;28;19913;-47
2022/06/22 03:31:11;;;;;;;;;;;;;;;25.82;64.53;98752.81;2062799;28;19944;-46
2022/06/22 03:32:18;;;;;;;;;;;;;;;25.83;64.52;98750.81;2062804;28;19924;-47
2022/06/22 03:33:24;;;;;;;;;;;;;;;25.81;64.49;98756.84;2065429;28;20106;-51
2022/06/22 03:34:27;;;;;;;;;;;;;;;25.82;64.36;98744.50;2063972;28;19924;-48
2022/06/22 03:35:27;;;;;;;;;;;;;;;25.83;64.42;98742.50;2062300;28;19971;-49
2022/06/22 03:36:43;;;;;;;;;;;;;;;25.83;64.63;98745.28;2071142;28;19929;-48
2022/06/22 03:37:49;;;;;;;;;;;;;;;25.82;64.78;98754.84;2067142;28;20223;-48
2022/06/22 03:38:52;;;;;;;;;;;;;;;25.81;64.77;98751.31;2069207;28;20019;-47
2022/06/22 03:39:56;;;;;;;;;;;;;;;25.81;64.70;98747.75;2067991;28;20354;-46
2022/06/22 03:40:59;;;;;;;;;;;;;;;25.82;64.56;98749.28;2068043;28;19979;-47
2022/06/22 03:42:13;;;;;;;;;;;;;;;25.80;64.31;98749.81;2068170;28;19939;-47
2022/06/22 03:43:22;;;;;;;;;;;;;;;25.80;64.47;98755.34;2051917;28;19993;-47
2022/06/22 03:44:27;;;;;;;;;;;;;;;25.80;64.74;98758.13;2063849;28;19913;-45
2022/06/22 03:45:30;;;;;;;;;;;;;;;25.79;64.84;98756.59;2067268;28;19920;-48
2022/06/22 03:46:51;;;;;;;;;;;;;;;25.80;64.66;98751.81;2065679;28;19917;-46
2022/06/22 03:48:07;;;;;;;;;;;;;;;25.78;64.36;98748.75;2066873;28;19921;-47
2022/06/22 03:49:10;;;;;;;;;;;;;;;25.78;64.36;98757.84;2067969;28;19913;-50
2022/06/22 03:50:10;;;;;;;;;;;;;;;25.78;64.65;98755.06;2067484;28;19936;-47
2022/06/22 03:51:17;;;;;;;;;;;;;;;25.76;64.21;98752.00;2066503;28;19909;-48
2022/06/22 03:52:26;;;;;;;;;;;;;;;25.75;63.79;98756.03;2067527;28;20287;-48
2022/06/22 03:53:31;;;;;;;;;;;;;;;25.75;63.91;98755.28;2063399;28;20006;-46
2022/06/22 03:54:35;;;;;;;;;;;;;;;25.73;63.96;98753.00;2068761;28;19909;-47
2022/06/22 03:55:37;;;;;;;;;;;;;;;25.73;64.40;98760.56;2067775;28;19915;-48
2022/06/22 03:56:40;;;;;;;;;;;;;;;25.73;64.15;98757.78;2066391;28;19920;-48
2022/06/22 03:57:43;;;;;;;;;;;;;;;25.72;64.34;98768.13;2068572;28;19919;-48
2022/06/22 03:58:45;;;;;;;;;;;;;;;25.74;64.35;98767.63;2066664;28;19919;-46
2022/06/22 03:59:46;;;;;;;;;;;;;;;25.72;64.34;98768.13;2067773;28;19913;-46
2022/06/22 04:00:47;;;;;;;;;;;;;;;25.73;64.39;98777.97;2069778;28;19948;-48
2022/06/22 04:01:47;;;;;;;;;;;;;;;25.73;64.31;98780.72;2063443;28;19940;-47
2022/06/22 04:02:48;;;;;;;;;;;;;;;25.73;64.07;98783.50;2065015;28;20181;-47
2022/06/22 04:03:50;;;;;;;;;;;;;;;25.73;64.21;98785.50;2066554;28;19920;-47
2022/06/22 04:04:51;;;;;;;;;;;;;;;25.73;64.45;98780.72;2063056;28;19949;-48
2022/06/22 04:05:56;;;;;;;;;;;;;;;25.71;64.42;98780.44;2067311;28;19916;-48
2022/06/22 04:06:56;;;;;;;;;;;;;;;25.72;64.46;98784.00;2064827;28;19920;-46
2022/06/22 04:07:57;;;;;;;;;;;;;;;25.72;64.33;98786.75;2063963;28;19935;-47
2022/06/22 04:09:01;;;;;;;;;;;;;;;25.71;64.47;98794.31;2069617;28;19955;-46
2022/06/22 04:10:02;;;;;;;;;;;;;;;25.72;64.12;98795.84;2064511;28;20016;-51
2022/06/22 04:11:12;;;;;;;;;;;;;;;25.72;64.33;98795.09;2068852;28;20799;-46
2022/06/22 04:12:15;;;;;;;;;;;;;;;25.72;64.58;98798.63;2064089;28;19924;-46
2022/06/22 04:13:35;;;;;;;;;;;;;;;25.71;64.29;98799.88;2068676;28;20331;-47
2022/06/22 04:14:46;;;;;;;;;;;;;;;25.71;64.13;98794.31;2063016;28;20446;-47
2022/06/22 04:16:13;;;;;;;;;;;;;;;25.69;64.20;98790.53;2065567;28;19978;-47
2022/06/22 04:17:25;;;;;;;;;;;;;;;25.69;64.43;98788.50;2063607;28;19951;-47
2022/06/22 04:18:34;;;;;;;;;;;;;;;25.69;64.43;98796.84;2066378;28;19920;-47
2022/06/22 04:19:42;;;;;;;;;;;;;;;25.69;64.83;98801.63;2067836;28;19940;-49
2022/06/22 04:20:54;;;;;;;;;;;;;;;25.68;64.59;98803.63;2067721;28;19905;-49
2022/06/22 04:22:14;;;;;;;;;;;;;;;25.69;64.66;98809.94;2063057;28;19948;-47
2022/06/22 04:23:17;;;;;;;;;;;;;;;25.69;64.48;98813.47;2065415;28;19966;-50
2022/06/22 04:24:29;;;;;;;;;;;;;;;25.69;64.44;98815.47;2061608;28;20278;-46
2022/06/22 04:25:33;;;;;;;;;;;;;;;25.67;64.60;98821.50;2060445;28;20212;-48
2022/06/22 04:26:36;;;;;;;;;;;;;;;25.66;64.52;98817.19;2062574;28;20279;-48
2022/06/22 04:27:39;;;;;;;;;;;;;;;25.68;64.29;98820.25;2061084;28;19909;-47
2022/06/22 04:28:42;;;;;;;;;;;;;;;25.69;64.42;98823.81;2064945;28;20323;-47
2022/06/22 04:29:49;;;;;;;;;;;;;;;25.67;64.30;98824.28;2062959;28;20341;-47
2022/06/22 04:30:50;;;;;;;;;;;;;;;25.68;64.44;98833.38;2061181;28;19917;-49
2022/06/22 04:32:14;;;;;;;;;;;;;;;25.67;64.42;98827.06;2060147;28;19909;-48
2022/06/22 04:33:20;;;;;;;;;;;;;;;25.65;64.31;98830.31;2058515;28;20462;-48
2022/06/22 04:34:32;;;;;;;;;;;;;;;25.65;64.38;98835.84;2062326;28;19944;-48
2022/06/22 04:35:58;;;;;;;;;;;;;;;25.65;63.58;98835.09;2060002;28;19950;-48
2022/06/22 04:37:01;;;;;;;;;;;;;;;25.66;62.80;98850.47;2058704;28;20625;-47
2022/06/22 04:38:21;;;;;;;;;;;;;;;25.68;63.34;98856.31;2065017;28;19920;-48
2022/06/22 04:39:26;;;;;;;;;;;;;;;25.65;63.78;98857.25;2061643;28;19905;-47
2022/06/22 04:40:33;;;;;;;;;;;;;;;25.67;63.20;98856.78;2058820;28;20402;-47
2022/06/22 04:41:35;;;;;;;;;;;;;;;25.66;62.46;98858.78;2060324;28;20378;-47
2022/06/22 04:42:36;;;;;;;;;;;;;;;25.66;63.20;98853.25;2060358;28;19901;-50
2022/06/22 04:43:36;;;;;;;;;;;;;;;25.66;62.97;98864.34;2060256;28;19913;-47
2022/06/22 04:44:48;;;;;;;;;;;;;;;25.65;63.26;98865.59;2068228;28;20002;-46
2022/06/22 04:45:49;;;;;;;;;;;;;;;25.63;62.70;98868.88;2064371;28;19978;-48
2022/06/22 04:46:55;;;;;;;;;;;;;;;25.65;63.42;98868.34;2062294;28;19917;-47
2022/06/22 04:47:58;;;;;;;;;;;;;;;25.65;63.97;98857.25;2063713;28;20361;-48
2022/06/22 04:49:02;;;;;;;;;;;;;;;25.63;64.06;98857.00;2061663;28;19920;-50
2022/06/22 04:50:09;;;;;;;;;;;;;;;25.63;63.94;98863.31;2061812;28;19910;-46
2022/06/22 04:51:13;;;;;;;;;;;;;;;25.64;63.72;98864.81;2063600;28;20294;-46
2022/06/22 04:52:18;;;;;;;;;;;;;;;25.64;63.23;98864.81;2061728;28;20333;-46
2022/06/22 04:53:21;;;;;;;;;;;;;;;25.63;63.31;98873.66;2062671;28;19913;-47
2022/06/22 04:54:26;;;;;;;;;;;;;;;25.61;62.78;98870.59;2061482;28;20008;-47
2022/06/22 04:55:27;;;;;;;;;;;;;;;25.61;63.20;98873.34;2063307;28;20380;-48
2022/06/22 04:56:48;;;;;;;;;;;;;;;25.58;63.71;98871.56;2061899;28;20231;-50
2022/06/22 04:57:50;;;;;;;;;;;;;;;25.57;63.63;98872.81;2061581;28;19962;-48
2022/06/22 04:58:54;;;;;;;;;;;;;;;25.58;63.83;98877.13;2062548;28;20954;-46
2022/06/22 04:59:55;;;;;;;;;;;;;;;25.57;63.88;98876.34;2066149;28;20264;-46
2022/06/22 05:00:56;;;;;;;;;;;;;;;25.57;64.03;98879.13;2061563;28;19960;-46
2022/06/22 05:01:58;;;;;;;;;;;;;;;25.55;64.19;98880.81;2063759;28;20381;-47
2022/06/22 05:03:04;;;;;;;;;;;;;;;25.55;63.68;98881.59;2065521;28;19924;-50
2022/06/22 05:04:06;;;;;;;;;;;;;;;25.58;63.64;98885.44;2058790;28;20588;-49
2022/06/22 05:05:15;;;;;;;;;;;;;;;25.56;63.77;98885.91;2063612;28;20405;-48
2022/06/22 05:06:18;;;;;;;;;;;;;;;25.55;63.92;98891.91;2062028;28;19967;-47
2022/06/22 05:07:27;;;;;;;;;;;;;;;25.54;63.96;98890.38;2065927;28;19902;-47
2022/06/22 05:08:35;;;;;;;;;;;;;;;25.53;63.83;98889.63;2064840;28;19905;-47
2022/06/22 05:09:41;;;;;;;;;;;;;;;25.53;64.00;98891.66;2064143;28;20103;-51
2022/06/22 05:10:44;;;;;;;;;;;;;;;25.53;63.68;98892.41;2066591;28;19909;-47
2022/06/22 05:11:47;;;;;;;;;;;;;;;25.52;63.34;98899.19;2064071;28;20012;-47
2022/06/22 05:12:47;;;;;;;;;;;;;;;25.54;63.71;98907.00;2062642;28;19999;-47
2022/06/22 05:13:49;;;;;;;;;;;;;;;25.52;63.75;98899.19;2066410;28;19916;-47
2022/06/22 05:14:51;;;;;;;;;;;;;;;25.53;63.82;98905.50;2067511;28;19963;-48
2022/06/22 05:15:53;;;;;;;;;;;;;;;25.51;63.46;98911.53;2067182;28;20522;-46
2022/06/22 05:17:05;;;;;;;;;;;;;;;25.51;63.83;98908.00;2069797;28;19913;-47
2022/06/22 05:18:11;;;;;;;;;;;;;;;25.51;63.67;98919.06;2062990;28;19913;-46
2022/06/22 05:19:12;;;;;;;;;;;;;;;25.50;63.19;98918.31;2066979;28;19923;-47
2022/06/22 05:20:19;;;;;;;;;;;;;;;25.49;63.07;98927.88;2067634;28;20000;-48
2022/06/22 05:21:30;;;;;;;;;;;;;;;25.49;63.46;98927.88;2064914;28;19915;-46
2022/06/22 05:22:31;;;;;;;;;;;;;;;25.49;63.59;98927.09;2063367;28;19905;-49
2022/06/22 05:23:31;;;;;;;;;;;;;;;25.49;63.80;98929.88;2066425;28;19912;-47
2022/06/22 05:24:34;;;;;;;;;;;;;;;25.48;63.90;98925.59;2058573;28;19966;-46
2022/06/22 05:25:35;;;;;;;;;;;;;;;25.47;63.85;98924.06;2064520;28;20068;-46
2022/06/22 05:26:36;;;;;;;;;;;;;;;25.45;63.78;98921.78;2053651;28;20703;-48
2022/06/22 05:27:46;;;;;;;;;;;;;;;25.46;63.95;98928.84;2052616;28;20332;-47
2022/06/22 05:28:49;;;;;;;;;;;;;;;25.46;63.97;98937.16;2067354;28;19960;-49
2022/06/22 05:30:09;;;;;;;;;;;;;;;25.48;63.97;98931.91;2064661;28;20320;-47
2022/06/22 05:31:29;;;;;;;;;;;;;;;25.47;63.97;98932.38;2059678;28;20347;-47
2022/06/22 05:32:32;;;;;;;;;;;;;;;25.47;63.71;98932.38;2069218;28;20011;-47
2022/06/22 05:33:33;;;;;;;;;;;;;;;25.48;63.88;98933.91;2066112;28;19909;-47
2022/06/22 05:34:36;;;;;;;;;;;;;;;25.47;63.89;98944.25;2065775;28;20155;-47
2022/06/22 05:35:39;;;;;;;;;;;;;;;25.47;64.11;98941.47;2067915;28;19909;-46
2022/06/22 05:36:42;;;;;;;;;;;;;;;25.48;64.00;98936.69;2067713;28;19948;-47
2022/06/22 05:37:45;;;;;;;;;;;;;;;25.48;63.96;98950.56;2066530;28;19955;-50
2022/06/22 05:38:46;;;;;;;;;;;;;;;25.49;63.86;98954.81;2068208;28;19913;-49
2022/06/22 05:39:47;;;;;;;;;;;;;;;25.47;63.65;98954.56;2066771;28;19917;-48
2022/06/22 05:40:48;;;;;;;;;;;;;;;25.45;63.79;98954.28;2068363;28;19921;-48
2022/06/22 05:41:49;;;;;;;;;;;;;;;25.44;63.98;98949.97;2068101;28;19909;-46
2022/06/22 05:42:50;;;;;;;;;;;;;;;25.46;63.63;98950.25;2065914;28;20288;-47
2022/06/22 05:43:50;;;;;;;;;;;;;;;25.46;63.65;98945.47;2061996;28;19901;-47
2022/06/22 05:44:51;;;;;;;;;;;;;;;25.45;63.75;98937.66;2067714;28;20160;-47
2022/06/22 05:45:54;;;;;;;;;;;;;;;25.43;63.93;98940.88;2067717;28;19905;-48
2022/06/22 05:46:56;;;;;;;;;;;;;;;25.44;63.98;98952.75;2067992;28;19912;-47
2022/06/22 05:47:57;;;;;;;;;;;;;;;25.44;64.06;98952.75;2067290;28;19989;-48